sensor_id;sensor_type;location;lat;lon;timestamp;P1;durP1;ratioP1;P2;durP2;ratioP2
1020;SDS011;499;42.648;23.270;2022-11-20T00:01:29;1.10;;;0.60;;
1020;SDS011;499;42.648;23.270;2022-11-20T00:03:56;1.10;;;0.57;;
1020;SDS011;499;42.648;23.270;2022-11-20T00:06:25;0.90;;;0.43;;
1020;SDS011;499;42.648;23.270;2022-11-20T00:08:53;0.90;;;0.40;;
1020;SDS011;499;42.648;23.270;2022-11-20T00:11:22;1.00;;;0.50;;
1020;SDS011;499;42.648;23.270;2022-11-20T00:13:51;1.77;;;0.70;;
1020;SDS011;499;42.648;23.270;2022-11-20T00:16:21;1.07;;;0.60;;
1020;SDS011;499;42.648;23.270;2022-11-20T00:18:51;1.23;;;0.80;;
1020;SDS011;499;42.648;23.270;2022-11-20T00:21:19;1.10;;;0.73;;
1020;SDS011;499;42.648;23.270;2022-11-20T00:23:47;0.97;;;0.50;;
1020;SDS011;499;42.648;23.270;2022-11-20T00:26:16;1.00;;;0.53;;
1020;SDS011;499;42.648;23.270;2022-11-20T00:28:44;1.00;;;0.67;;
1020;SDS011;499;42.648;23.270;2022-11-20T00:31:16;1.30;;;0.60;;
1020;SDS011;499;42.648;23.270;2022-11-20T00:33:43;1.00;;;0.50;;
1020;SDS011;499;42.648;23.270;2022-11-20T00:36:12;1.10;;;0.60;;
1020;SDS011;499;42.648;23.270;2022-11-20T00:38:40;1.00;;;0.50;;
1020;SDS011;499;42.648;23.270;2022-11-20T00:41:08;1.00;;;0.50;;
1020;SDS011;499;42.648;23.270;2022-11-20T00:43:37;1.37;;;0.87;;
1020;SDS011;499;42.648;23.270;2022-11-20T00:46:05;1.00;;;0.60;;
1020;SDS011;499;42.648;23.270;2022-11-20T00:48:33;1.07;;;0.53;;
1020;SDS011;499;42.648;23.270;2022-11-20T00:51:01;1.20;;;0.80;;
1020;SDS011;499;42.648;23.270;2022-11-20T00:53:29;1.00;;;0.50;;
1020;SDS011;499;42.648;23.270;2022-11-20T00:55:57;0.90;;;0.47;;
1020;SDS011;499;42.648;23.270;2022-11-20T00:58:28;1.20;;;0.63;;
1020;SDS011;499;42.648;23.270;2022-11-20T01:00:59;0.90;;;0.40;;
1020;SDS011;499;42.648;23.270;2022-11-20T01:03:26;0.90;;;0.40;;
1020;SDS011;499;42.648;23.270;2022-11-20T01:05:54;1.00;;;0.60;;
1020;SDS011;499;42.648;23.270;2022-11-20T01:08:25;1.23;;;0.80;;
1020;SDS011;499;42.648;23.270;2022-11-20T01:10:59;1.33;;;0.70;;
1020;SDS011;499;42.648;23.270;2022-11-20T01:13:27;0.90;;;0.50;;
1020;SDS011;499;42.648;23.270;2022-11-20T01:16:04;1.00;;;0.50;;
1020;SDS011;499;42.648;23.270;2022-11-20T01:18:32;0.90;;;0.40;;
1020;SDS011;499;42.648;23.270;2022-11-20T01:21:01;1.00;;;0.50;;
1020;SDS011;499;42.648;23.270;2022-11-20T01:23:30;0.90;;;0.50;;
1020;SDS011;499;42.648;23.270;2022-11-20T01:26:00;1.10;;;0.70;;
1020;SDS011;499;42.648;23.270;2022-11-20T01:28:28;0.93;;;0.47;;
1020;SDS011;499;42.648;23.270;2022-11-20T01:30:56;1.20;;;0.47;;
1020;SDS011;499;42.648;23.270;2022-11-20T01:33:23;1.60;;;1.00;;
1020;SDS011;499;42.648;23.270;2022-11-20T01:35:51;1.00;;;0.60;;
1020;SDS011;499;42.648;23.270;2022-11-20T01:38:18;1.20;;;0.60;;
1020;SDS011;499;42.648;23.270;2022-11-20T01:40:53;0.90;;;0.50;;
1020;SDS011;499;42.648;23.270;2022-11-20T01:43:22;1.40;;;0.40;;
1020;SDS011;499;42.648;23.270;2022-11-20T01:45:58;1.10;;;0.70;;
1020;SDS011;499;42.648;23.270;2022-11-20T01:48:43;0.90;;;0.47;;
1020;SDS011;499;42.648;23.270;2022-11-20T01:51:16;0.90;;;0.50;;
1020;SDS011;499;42.648;23.270;2022-11-20T01:53:47;0.90;;;0.43;;
1020;SDS011;499;42.648;23.270;2022-11-20T01:56:16;0.90;;;0.40;;
1020;SDS011;499;42.648;23.270;2022-11-20T01:58:47;1.20;;;0.57;;
1020;SDS011;499;42.648;23.270;2022-11-20T02:01:17;1.00;;;0.47;;
1020;SDS011;499;42.648;23.270;2022-11-20T02:03:44;1.63;;;0.53;;
1020;SDS011;499;42.648;23.270;2022-11-20T02:06:13;0.90;;;0.50;;
1020;SDS011;499;42.648;23.270;2022-11-20T02:08:45;0.97;;;0.50;;
1020;SDS011;499;42.648;23.270;2022-11-20T02:11:12;1.00;;;0.40;;
1020;SDS011;499;42.648;23.270;2022-11-20T02:13:39;1.00;;;0.60;;
1020;SDS011;499;42.648;23.270;2022-11-20T02:18:55;1.00;;;0.60;;
1020;SDS011;499;42.648;23.270;2022-11-20T02:21:27;1.00;;;0.57;;
1020;SDS011;499;42.648;23.270;2022-11-20T02:24:04;0.90;;;0.50;;
1020;SDS011;499;42.648;23.270;2022-11-20T02:26:38;1.10;;;0.57;;
1020;SDS011;499;42.648;23.270;2022-11-20T02:29:10;1.00;;;0.50;;
1020;SDS011;499;42.648;23.270;2022-11-20T02:31:38;1.10;;;0.60;;
1020;SDS011;499;42.648;23.270;2022-11-20T02:34:07;0.90;;;0.50;;
1020;SDS011;499;42.648;23.270;2022-11-20T02:36:35;0.90;;;0.40;;
1020;SDS011;499;42.648;23.270;2022-11-20T02:39:05;0.93;;;0.43;;
1020;SDS011;499;42.648;23.270;2022-11-20T02:41:33;1.00;;;0.50;;
1020;SDS011;499;42.648;23.270;2022-11-20T02:44:02;1.20;;;0.70;;
1020;SDS011;499;42.648;23.270;2022-11-20T02:46:30;1.20;;;0.60;;
1020;SDS011;499;42.648;23.270;2022-11-20T02:48:57;1.00;;;0.53;;
1020;SDS011;499;42.648;23.270;2022-11-20T02:51:25;1.00;;;0.50;;
1020;SDS011;499;42.648;23.270;2022-11-20T02:53:52;1.00;;;0.60;;
1020;SDS011;499;42.648;23.270;2022-11-20T02:56:20;0.90;;;0.40;;
1020;SDS011;499;42.648;23.270;2022-11-20T02:58:47;1.10;;;0.60;;
1020;SDS011;499;42.648;23.270;2022-11-20T03:01:14;1.07;;;0.60;;
1020;SDS011;499;42.648;23.270;2022-11-20T03:03:41;1.20;;;0.80;;
1020;SDS011;499;42.648;23.270;2022-11-20T03:06:08;2.43;;;1.10;;
1020;SDS011;499;42.648;23.270;2022-11-20T03:08:35;1.00;;;0.70;;
1020;SDS011;499;42.648;23.270;2022-11-20T03:11:04;1.20;;;0.70;;
1020;SDS011;499;42.648;23.270;2022-11-20T03:13:34;1.30;;;0.90;;
1020;SDS011;499;42.648;23.270;2022-11-20T03:16:08;1.27;;;0.60;;
1020;SDS011;499;42.648;23.270;2022-11-20T03:18:37;1.23;;;0.73;;
1020;SDS011;499;42.648;23.270;2022-11-20T03:21:04;1.20;;;0.80;;
1020;SDS011;499;42.648;23.270;2022-11-20T03:23:32;1.10;;;0.60;;
1020;SDS011;499;42.648;23.270;2022-11-20T03:26:09;1.10;;;0.63;;
1020;SDS011;499;42.648;23.270;2022-11-20T03:28:40;1.07;;;0.60;;
1020;SDS011;499;42.648;23.270;2022-11-20T03:31:08;1.00;;;0.70;;
1020;SDS011;499;42.648;23.270;2022-11-20T03:33:36;1.33;;;0.80;;
1020;SDS011;499;42.648;23.270;2022-11-20T03:36:04;1.10;;;0.70;;
1020;SDS011;499;42.648;23.270;2022-11-20T03:38:32;0.90;;;0.50;;
1020;SDS011;499;42.648;23.270;2022-11-20T03:41:01;2.13;;;0.70;;
1020;SDS011;499;42.648;23.270;2022-11-20T03:43:29;1.20;;;0.70;;
1020;SDS011;499;42.648;23.270;2022-11-20T03:45:58;1.20;;;0.67;;
1020;SDS011;499;42.648;23.270;2022-11-20T03:48:26;1.00;;;0.60;;
1020;SDS011;499;42.648;23.270;2022-11-20T03:50:54;1.10;;;0.70;;
1020;SDS011;499;42.648;23.270;2022-11-20T03:53:33;1.03;;;0.60;;
1020;SDS011;499;42.648;23.270;2022-11-20T03:56:01;1.10;;;0.57;;
1020;SDS011;499;42.648;23.270;2022-11-20T03:58:28;1.10;;;0.50;;
1020;SDS011;499;42.648;23.270;2022-11-20T04:00:55;0.90;;;0.43;;
1020;SDS011;499;42.648;23.270;2022-11-20T04:03:23;1.00;;;0.60;;
1020;SDS011;499;42.648;23.270;2022-11-20T04:05:51;1.60;;;0.80;;
1020;SDS011;499;42.648;23.270;2022-11-20T04:08:18;1.30;;;1.00;;
1020;SDS011;499;42.648;23.270;2022-11-20T04:10:45;1.30;;;1.03;;
1020;SDS011;499;42.648;23.270;2022-11-20T04:13:12;1.07;;;0.43;;
1020;SDS011;499;42.648;23.270;2022-11-20T04:15:39;1.30;;;0.67;;
1020;SDS011;499;42.648;23.270;2022-11-20T04:18:06;1.87;;;1.27;;
1020;SDS011;499;42.648;23.270;2022-11-20T04:20:35;1.00;;;0.60;;
1020;SDS011;499;42.648;23.270;2022-11-20T04:23:02;1.00;;;0.63;;
1020;SDS011;499;42.648;23.270;2022-11-20T04:25:29;0.97;;;0.50;;
1020;SDS011;499;42.648;23.270;2022-11-20T04:27:56;1.10;;;0.60;;
1020;SDS011;499;42.648;23.270;2022-11-20T04:30:23;1.30;;;0.63;;
1020;SDS011;499;42.648;23.270;2022-11-20T04:32:50;1.00;;;0.60;;
1020;SDS011;499;42.648;23.270;2022-11-20T04:35:17;1.30;;;0.70;;
1020;SDS011;499;42.648;23.270;2022-11-20T04:37:46;1.47;;;0.60;;
1020;SDS011;499;42.648;23.270;2022-11-20T04:40:13;1.10;;;0.70;;
1020;SDS011;499;42.648;23.270;2022-11-20T04:42:40;2.50;;;1.47;;
1020;SDS011;499;42.648;23.270;2022-11-20T04:45:07;0.97;;;0.50;;
1020;SDS011;499;42.648;23.270;2022-11-20T04:47:34;1.20;;;0.50;;
1020;SDS011;499;42.648;23.270;2022-11-20T04:50:01;1.70;;;0.60;;
1020;SDS011;499;42.648;23.270;2022-11-20T04:52:29;1.23;;;0.60;;
1020;SDS011;499;42.648;23.270;2022-11-20T04:54:57;1.07;;;0.60;;
1020;SDS011;499;42.648;23.270;2022-11-20T04:57:24;1.10;;;0.60;;
1020;SDS011;499;42.648;23.270;2022-11-20T04:59:51;0.90;;;0.50;;
1020;SDS011;499;42.648;23.270;2022-11-20T05:02:18;2.00;;;1.10;;
1020;SDS011;499;42.648;23.270;2022-11-20T05:04:45;1.10;;;0.60;;
1020;SDS011;499;42.648;23.270;2022-11-20T05:07:12;1.10;;;0.60;;
1020;SDS011;499;42.648;23.270;2022-11-20T05:09:39;1.47;;;0.90;;
1020;SDS011;499;42.648;23.270;2022-11-20T05:12:08;1.00;;;0.60;;
1020;SDS011;499;42.648;23.270;2022-11-20T05:14:35;1.03;;;0.70;;
1020;SDS011;499;42.648;23.270;2022-11-20T05:17:02;0.93;;;0.63;;
1020;SDS011;499;42.648;23.270;2022-11-20T05:19:29;0.90;;;0.50;;
1020;SDS011;499;42.648;23.270;2022-11-20T05:21:56;0.90;;;0.50;;
1020;SDS011;499;42.648;23.270;2022-11-20T05:24:23;1.17;;;0.60;;
1020;SDS011;499;42.648;23.270;2022-11-20T05:26:51;0.90;;;0.50;;
1020;SDS011;499;42.648;23.270;2022-11-20T05:29:19;1.20;;;0.60;;
1020;SDS011;499;42.648;23.270;2022-11-20T05:31:46;1.07;;;0.60;;
1020;SDS011;499;42.648;23.270;2022-11-20T05:34:13;0.90;;;0.50;;
1020;SDS011;499;42.648;23.270;2022-11-20T05:36:40;0.97;;;0.47;;
1020;SDS011;499;42.648;23.270;2022-11-20T05:39:07;1.00;;;0.60;;
1020;SDS011;499;42.648;23.270;2022-11-20T05:41:34;1.20;;;0.77;;
1020;SDS011;499;42.648;23.270;2022-11-20T05:44:01;1.10;;;0.63;;
1020;SDS011;499;42.648;23.270;2022-11-20T05:46:30;1.00;;;0.47;;
1020;SDS011;499;42.648;23.270;2022-11-20T05:48:57;1.83;;;0.73;;
1020;SDS011;499;42.648;23.270;2022-11-20T05:51:25;0.93;;;0.50;;
1020;SDS011;499;42.648;23.270;2022-11-20T05:53:52;0.90;;;0.60;;
1020;SDS011;499;42.648;23.270;2022-11-20T05:56:20;1.00;;;0.60;;
1020;SDS011;499;42.648;23.270;2022-11-20T05:58:48;1.10;;;0.70;;
1020;SDS011;499;42.648;23.270;2022-11-20T06:01:17;1.00;;;0.60;;
1020;SDS011;499;42.648;23.270;2022-11-20T06:03:46;1.50;;;0.50;;
1020;SDS011;499;42.648;23.270;2022-11-20T06:06:15;0.93;;;0.50;;
1020;SDS011;499;42.648;23.270;2022-11-20T06:08:43;1.10;;;0.50;;
1020;SDS011;499;42.648;23.270;2022-11-20T06:11:11;1.87;;;0.70;;
1020;SDS011;499;42.648;23.270;2022-11-20T06:13:39;1.57;;;1.17;;
1020;SDS011;499;42.648;23.270;2022-11-20T06:16:07;1.27;;;0.60;;
1020;SDS011;499;42.648;23.270;2022-11-20T06:18:34;0.90;;;0.40;;
1020;SDS011;499;42.648;23.270;2022-11-20T06:21:03;1.00;;;0.50;;
1020;SDS011;499;42.648;23.270;2022-11-20T06:23:32;1.10;;;0.50;;
1020;SDS011;499;42.648;23.270;2022-11-20T06:26:01;1.00;;;0.50;;
1020;SDS011;499;42.648;23.270;2022-11-20T06:28:29;1.43;;;0.60;;
1020;SDS011;499;42.648;23.270;2022-11-20T06:30:56;1.10;;;0.50;;
1020;SDS011;499;42.648;23.270;2022-11-20T06:33:23;1.37;;;0.77;;
1020;SDS011;499;42.648;23.270;2022-11-20T06:35:51;1.00;;;0.50;;
1020;SDS011;499;42.648;23.270;2022-11-20T06:38:19;0.90;;;0.47;;
1020;SDS011;499;42.648;23.270;2022-11-20T06:40:46;1.37;;;0.80;;
1020;SDS011;499;42.648;23.270;2022-11-20T06:43:13;1.10;;;0.80;;
1020;SDS011;499;42.648;23.270;2022-11-20T06:45:40;1.10;;;0.53;;
1020;SDS011;499;42.648;23.270;2022-11-20T06:48:07;0.90;;;0.47;;
1020;SDS011;499;42.648;23.270;2022-11-20T06:50:36;1.07;;;0.60;;
1020;SDS011;499;42.648;23.270;2022-11-20T06:53:03;1.40;;;0.40;;
1020;SDS011;499;42.648;23.270;2022-11-20T06:55:32;0.90;;;0.40;;
1020;SDS011;499;42.648;23.270;2022-11-20T06:57:59;1.00;;;0.50;;
1020;SDS011;499;42.648;23.270;2022-11-20T07:00:26;1.00;;;0.50;;
1020;SDS011;499;42.648;23.270;2022-11-20T07:02:53;1.17;;;0.50;;
1020;SDS011;499;42.648;23.270;2022-11-20T07:05:20;1.73;;;0.47;;
1020;SDS011;499;42.648;23.270;2022-11-20T07:07:47;0.90;;;0.40;;
1020;SDS011;499;42.648;23.270;2022-11-20T07:10:14;1.33;;;0.60;;
1020;SDS011;499;42.648;23.270;2022-11-20T07:12:48;1.00;;;0.50;;
1020;SDS011;499;42.648;23.270;2022-11-20T07:15:15;1.03;;;0.60;;
1020;SDS011;499;42.648;23.270;2022-11-20T07:17:42;1.17;;;0.50;;
1020;SDS011;499;42.648;23.270;2022-11-20T07:20:10;1.00;;;0.50;;
1020;SDS011;499;42.648;23.270;2022-11-20T07:22:37;1.00;;;0.50;;
1020;SDS011;499;42.648;23.270;2022-11-20T07:25:05;1.00;;;0.50;;
1020;SDS011;499;42.648;23.270;2022-11-20T07:27:33;1.07;;;0.50;;
1020;SDS011;499;42.648;23.270;2022-11-20T07:30:01;1.00;;;0.50;;
1020;SDS011;499;42.648;23.270;2022-11-20T07:32:29;1.10;;;0.53;;
1020;SDS011;499;42.648;23.270;2022-11-20T07:34:56;1.10;;;0.70;;
1020;SDS011;499;42.648;23.270;2022-11-20T07:37:23;1.60;;;0.80;;
1020;SDS011;499;42.648;23.270;2022-11-20T07:39:50;1.13;;;0.67;;
1020;SDS011;499;42.648;23.270;2022-11-20T07:42:17;2.13;;;0.60;;
1020;SDS011;499;42.648;23.270;2022-11-20T07:44:45;1.20;;;0.60;;
1020;SDS011;499;42.648;23.270;2022-11-20T07:47:13;1.10;;;0.60;;
1020;SDS011;499;42.648;23.270;2022-11-20T07:49:40;1.27;;;0.67;;
1020;SDS011;499;42.648;23.270;2022-11-20T07:52:07;1.00;;;0.60;;
1020;SDS011;499;42.648;23.270;2022-11-20T07:54:34;0.90;;;0.40;;
1020;SDS011;499;42.648;23.270;2022-11-20T07:57:01;1.37;;;0.70;;
1020;SDS011;499;42.648;23.270;2022-11-20T07:59:28;0.90;;;0.40;;
1020;SDS011;499;42.648;23.270;2022-11-20T08:01:55;1.10;;;0.50;;
1020;SDS011;499;42.648;23.270;2022-11-20T08:04:24;1.07;;;0.60;;
1020;SDS011;499;42.648;23.270;2022-11-20T08:06:51;1.00;;;0.53;;
1020;SDS011;499;42.648;23.270;2022-11-20T08:09:18;0.90;;;0.50;;
1020;SDS011;499;42.648;23.270;2022-11-20T08:11:45;0.90;;;0.50;;
1020;SDS011;499;42.648;23.270;2022-11-20T08:14:29;1.70;;;1.07;;
1020;SDS011;499;42.648;23.270;2022-11-20T08:16:56;2.63;;;1.63;;
1020;SDS011;499;42.648;23.270;2022-11-20T08:19:25;1.00;;;0.50;;
1020;SDS011;499;42.648;23.270;2022-11-20T08:21:53;1.20;;;0.80;;
1020;SDS011;499;42.648;23.270;2022-11-20T08:24:21;1.77;;;1.07;;
1020;SDS011;499;42.648;23.270;2022-11-20T08:26:48;1.40;;;1.03;;
1020;SDS011;499;42.648;23.270;2022-11-20T08:29:15;0.90;;;0.43;;
1020;SDS011;499;42.648;23.270;2022-11-20T08:31:42;1.10;;;0.60;;
1020;SDS011;499;42.648;23.270;2022-11-20T08:34:09;1.00;;;0.50;;
1020;SDS011;499;42.648;23.270;2022-11-20T08:36:37;1.23;;;0.50;;
1020;SDS011;499;42.648;23.270;2022-11-20T08:39:04;1.57;;;0.60;;
1020;SDS011;499;42.648;23.270;2022-11-20T08:41:31;1.43;;;0.60;;
1020;SDS011;499;42.648;23.270;2022-11-20T08:43:59;0.90;;;0.50;;
1020;SDS011;499;42.648;23.270;2022-11-20T08:46:28;1.40;;;0.73;;
1020;SDS011;499;42.648;23.270;2022-11-20T08:48:59;1.30;;;0.93;;
1020;SDS011;499;42.648;23.270;2022-11-20T08:51:26;1.40;;;0.90;;
1020;SDS011;499;42.648;23.270;2022-11-20T08:53:55;1.53;;;1.00;;
1020;SDS011;499;42.648;23.270;2022-11-20T08:56:22;1.50;;;1.03;;
1020;SDS011;499;42.648;23.270;2022-11-20T08:58:49;1.30;;;1.00;;
1020;SDS011;499;42.648;23.270;2022-11-20T09:01:17;2.07;;;1.73;;
1020;SDS011;499;42.648;23.270;2022-11-20T09:03:45;2.13;;;1.40;;
1020;SDS011;499;42.648;23.270;2022-11-20T09:06:12;2.80;;;1.50;;
1020;SDS011;499;42.648;23.270;2022-11-20T09:08:39;1.33;;;1.07;;
1020;SDS011;499;42.648;23.270;2022-11-20T09:11:08;1.67;;;1.13;;
1020;SDS011;499;42.648;23.270;2022-11-20T09:13:36;1.77;;;1.40;;
1020;SDS011;499;42.648;23.270;2022-11-20T09:16:04;1.73;;;1.40;;
1020;SDS011;499;42.648;23.270;2022-11-20T09:18:32;1.40;;;1.00;;
1020;SDS011;499;42.648;23.270;2022-11-20T09:21:03;1.10;;;0.60;;
1020;SDS011;499;42.648;23.270;2022-11-20T09:23:32;1.30;;;0.90;;
1020;SDS011;499;42.648;23.270;2022-11-20T09:26:04;1.10;;;0.70;;
1020;SDS011;499;42.648;23.270;2022-11-20T09:28:33;1.10;;;1.00;;
1020;SDS011;499;42.648;23.270;2022-11-20T09:31:00;1.23;;;0.80;;
1020;SDS011;499;42.648;23.270;2022-11-20T09:33:31;1.57;;;0.90;;
1020;SDS011;499;42.648;23.270;2022-11-20T09:35:58;1.83;;;0.60;;
1020;SDS011;499;42.648;23.270;2022-11-20T09:38:25;1.50;;;1.20;;
1020;SDS011;499;42.648;23.270;2022-11-20T09:40:54;1.40;;;1.30;;
1020;SDS011;499;42.648;23.270;2022-11-20T09:43:26;1.33;;;1.20;;
1020;SDS011;499;42.648;23.270;2022-11-20T09:46:05;1.10;;;0.83;;
1020;SDS011;499;42.648;23.270;2022-11-20T09:48:43;1.13;;;0.70;;
1020;SDS011;499;42.648;23.270;2022-11-20T09:51:19;1.03;;;0.67;;
1020;SDS011;499;42.648;23.270;2022-11-20T09:53:56;4.27;;;1.97;;
1020;SDS011;499;42.648;23.270;2022-11-20T09:56:33;1.00;;;0.83;;
1020;SDS011;499;42.648;23.270;2022-11-20T09:59:05;1.23;;;0.87;;
1020;SDS011;499;42.648;23.270;2022-11-20T10:01:40;1.20;;;0.77;;
1020;SDS011;499;42.648;23.270;2022-11-20T10:04:10;1.43;;;0.77;;
1020;SDS011;499;42.648;23.270;2022-11-20T10:06:42;1.63;;;1.10;;
1020;SDS011;499;42.648;23.270;2022-11-20T10:09:18;1.40;;;0.90;;
1020;SDS011;499;42.648;23.270;2022-11-20T10:11:53;2.70;;;0.90;;
1020;SDS011;499;42.648;23.270;2022-11-20T10:14:31;1.27;;;0.70;;
1020;SDS011;499;42.648;23.270;2022-11-20T10:17:08;1.30;;;0.80;;
1020;SDS011;499;42.648;23.270;2022-11-20T10:19:45;2.30;;;1.57;;
1020;SDS011;499;42.648;23.270;2022-11-20T10:22:26;1.30;;;0.90;;
1020;SDS011;499;42.648;23.270;2022-11-20T10:25:04;1.23;;;0.67;;
1020;SDS011;499;42.648;23.270;2022-11-20T10:30:45;1.40;;;0.70;;
1020;SDS011;499;42.648;23.270;2022-11-20T10:33:21;0.90;;;0.63;;
1020;SDS011;499;42.648;23.270;2022-11-20T10:35:50;1.37;;;0.93;;
1020;SDS011;499;42.648;23.270;2022-11-20T10:38:23;1.07;;;0.83;;
1020;SDS011;499;42.648;23.270;2022-11-20T10:40:54;1.10;;;0.73;;
1020;SDS011;499;42.648;23.270;2022-11-20T10:43:44;1.50;;;0.80;;
1020;SDS011;499;42.648;23.270;2022-11-20T10:46:14;1.63;;;0.90;;
1020;SDS011;499;42.648;23.270;2022-11-20T10:48:43;4.10;;;3.17;;
1020;SDS011;499;42.648;23.270;2022-11-20T10:51:13;1.80;;;1.10;;
1020;SDS011;499;42.648;23.270;2022-11-20T10:53:53;1.73;;;1.33;;
1020;SDS011;499;42.648;23.270;2022-11-20T10:56:26;4.23;;;2.23;;
1020;SDS011;499;42.648;23.270;2022-11-20T10:59:11;2.20;;;1.53;;
1020;SDS011;499;42.648;23.270;2022-11-20T11:01:55;1.87;;;1.27;;
1020;SDS011;499;42.648;23.270;2022-11-20T11:04:33;2.27;;;1.50;;
1020;SDS011;499;42.648;23.270;2022-11-20T11:07:06;1.50;;;1.40;;
1020;SDS011;499;42.648;23.270;2022-11-20T11:09:38;1.40;;;0.70;;
1020;SDS011;499;42.648;23.270;2022-11-20T11:12:09;1.40;;;0.90;;
1020;SDS011;499;42.648;23.270;2022-11-20T11:14:43;1.00;;;0.63;;
1020;SDS011;499;42.648;23.270;2022-11-20T11:17:21;4.40;;;2.73;;
1020;SDS011;499;42.648;23.270;2022-11-20T11:25:19;0.80;;;0.50;;
1020;SDS011;499;42.648;23.270;2022-11-20T11:27:55;0.80;;;0.50;;
1020;SDS011;499;42.648;23.270;2022-11-20T11:30:25;0.90;;;0.60;;
1020;SDS011;499;42.648;23.270;2022-11-20T11:33:05;0.90;;;0.60;;
1020;SDS011;499;42.648;23.270;2022-11-20T11:35:39;0.90;;;0.60;;
1020;SDS011;499;42.648;23.270;2022-11-20T11:38:12;0.80;;;0.50;;
1020;SDS011;499;42.648;23.270;2022-11-20T11:40:43;0.83;;;0.63;;
1020;SDS011;499;42.648;23.270;2022-11-20T11:43:16;0.90;;;0.60;;
1020;SDS011;499;42.648;23.270;2022-11-20T11:45:59;1.00;;;0.60;;
1020;SDS011;499;42.648;23.270;2022-11-20T11:48:28;0.90;;;0.53;;
1020;SDS011;499;42.648;23.270;2022-11-20T11:50:55;0.90;;;0.70;;
1020;SDS011;499;42.648;23.270;2022-11-20T11:53:23;0.90;;;0.50;;
1020;SDS011;499;42.648;23.270;2022-11-20T11:55:54;1.50;;;0.90;;
1020;SDS011;499;42.648;23.270;2022-11-20T11:58:34;1.63;;;0.73;;
1020;SDS011;499;42.648;23.270;2022-11-20T12:01:11;0.87;;;0.67;;
1020;SDS011;499;42.648;23.270;2022-11-20T12:03:55;0.90;;;0.60;;
1020;SDS011;499;42.648;23.270;2022-11-20T12:06:27;0.90;;;0.60;;
1020;SDS011;499;42.648;23.270;2022-11-20T12:08:57;0.80;;;0.50;;
1020;SDS011;499;42.648;23.270;2022-11-20T12:11:30;0.90;;;0.67;;
1020;SDS011;499;42.648;23.270;2022-11-20T12:14:01;1.17;;;0.53;;
1020;SDS011;499;42.648;23.270;2022-11-20T12:16:36;0.90;;;0.50;;
1020;SDS011;499;42.648;23.270;2022-11-20T12:19:09;0.90;;;0.60;;
1020;SDS011;499;42.648;23.270;2022-11-20T12:21:42;0.97;;;0.60;;
1020;SDS011;499;42.648;23.270;2022-11-20T12:24:37;0.80;;;0.50;;
1020;SDS011;499;42.648;23.270;2022-11-20T12:27:35;1.77;;;0.60;;
1020;SDS011;499;42.648;23.270;2022-11-20T12:30:11;0.80;;;0.50;;
1020;SDS011;499;42.648;23.270;2022-11-20T12:32:47;1.07;;;0.77;;
1020;SDS011;499;42.648;23.270;2022-11-20T12:41:27;1.57;;;1.03;;
1020;SDS011;499;42.648;23.270;2022-11-20T12:44:32;1.20;;;0.90;;
1020;SDS011;499;42.648;23.270;2022-11-20T12:47:44;0.90;;;0.60;;
1020;SDS011;499;42.648;23.270;2022-11-20T12:50:32;1.60;;;0.90;;
1020;SDS011;499;42.648;23.270;2022-11-20T12:53:10;0.80;;;0.50;;
1020;SDS011;499;42.648;23.270;2022-11-20T12:55:51;1.80;;;1.70;;
1020;SDS011;499;42.648;23.270;2022-11-20T12:58:24;0.90;;;0.70;;
1020;SDS011;499;42.648;23.270;2022-11-20T13:01:00;1.33;;;0.80;;
1020;SDS011;499;42.648;23.270;2022-11-20T13:03:55;0.90;;;0.50;;
1020;SDS011;499;42.648;23.270;2022-11-20T13:06:26;0.90;;;0.50;;
1020;SDS011;499;42.648;23.270;2022-11-20T13:08:54;0.90;;;0.50;;
1020;SDS011;499;42.648;23.270;2022-11-20T13:11:25;1.10;;;0.50;;
1020;SDS011;499;42.648;23.270;2022-11-20T13:14:04;1.50;;;0.70;;
1020;SDS011;499;42.648;23.270;2022-11-20T13:16:45;1.10;;;0.80;;
1020;SDS011;499;42.648;23.270;2022-11-20T13:19:18;1.67;;;0.90;;
1020;SDS011;499;42.648;23.270;2022-11-20T13:21:46;3.67;;;1.20;;
1020;SDS011;499;42.648;23.270;2022-11-20T13:24:22;1.90;;;1.00;;
1020;SDS011;499;42.648;23.270;2022-11-20T13:27:16;1.30;;;1.00;;
1020;SDS011;499;42.648;23.270;2022-11-20T13:29:46;1.80;;;1.10;;
1020;SDS011;499;42.648;23.270;2022-11-20T13:32:25;3.30;;;1.23;;
1020;SDS011;499;42.648;23.270;2022-11-20T13:34:57;1.43;;;1.10;;
1020;SDS011;499;42.648;23.270;2022-11-20T13:37:28;1.50;;;1.03;;
1020;SDS011;499;42.648;23.270;2022-11-20T13:40:11;2.10;;;1.60;;
1020;SDS011;499;42.648;23.270;2022-11-20T13:42:43;1.70;;;1.57;;
1020;SDS011;499;42.648;23.270;2022-11-20T13:45:21;2.20;;;1.67;;
1020;SDS011;499;42.648;23.270;2022-11-20T13:47:50;2.07;;;1.53;;
1020;SDS011;499;42.648;23.270;2022-11-20T13:50:18;2.03;;;1.30;;
1020;SDS011;499;42.648;23.270;2022-11-20T13:52:50;3.37;;;2.77;;
1020;SDS011;499;42.648;23.270;2022-11-20T13:55:26;5.20;;;3.47;;
1020;SDS011;499;42.648;23.270;2022-11-20T13:58:24;3.50;;;2.20;;
1020;SDS011;499;42.648;23.270;2022-11-20T14:01:08;3.57;;;2.70;;
1020;SDS011;499;42.648;23.270;2022-11-20T14:03:36;3.10;;;2.40;;
1020;SDS011;499;42.648;23.270;2022-11-20T14:06:10;5.10;;;4.23;;
1020;SDS011;499;42.648;23.270;2022-11-20T14:08:40;4.80;;;2.77;;
1020;SDS011;499;42.648;23.270;2022-11-20T14:11:14;3.40;;;2.10;;
1020;SDS011;499;42.648;23.270;2022-11-20T14:13:54;2.83;;;1.93;;
1020;SDS011;499;42.648;23.270;2022-11-20T14:16:24;2.00;;;1.60;;
1020;SDS011;499;42.648;23.270;2022-11-20T14:18:52;4.20;;;2.53;;
1020;SDS011;499;42.648;23.270;2022-11-20T14:21:27;4.00;;;2.47;;
1020;SDS011;499;42.648;23.270;2022-11-20T14:24:03;2.33;;;2.00;;
1020;SDS011;499;42.648;23.270;2022-11-20T14:26:31;2.80;;;1.93;;
1020;SDS011;499;42.648;23.270;2022-11-20T14:29:00;3.70;;;2.33;;
1020;SDS011;499;42.648;23.270;2022-11-20T14:31:27;2.67;;;1.20;;
1020;SDS011;499;42.648;23.270;2022-11-20T14:33:57;2.27;;;1.37;;
1020;SDS011;499;42.648;23.270;2022-11-20T14:36:24;3.70;;;3.20;;
1020;SDS011;499;42.648;23.270;2022-11-20T14:38:52;5.17;;;2.60;;
1020;SDS011;499;42.648;23.270;2022-11-20T14:41:20;8.13;;;6.40;;
1020;SDS011;499;42.648;23.270;2022-11-20T14:43:50;2.97;;;2.60;;
1020;SDS011;499;42.648;23.270;2022-11-20T14:46:21;1.40;;;1.20;;
1020;SDS011;499;42.648;23.270;2022-11-20T14:48:50;2.53;;;2.33;;
1020;SDS011;499;42.648;23.270;2022-11-20T14:51:29;1.10;;;0.90;;
1020;SDS011;499;42.648;23.270;2022-11-20T14:54:07;1.97;;;1.30;;
1020;SDS011;499;42.648;23.270;2022-11-20T14:56:36;1.60;;;1.03;;
1020;SDS011;499;42.648;23.270;2022-11-20T14:59:03;1.43;;;0.70;;
1020;SDS011;499;42.648;23.270;2022-11-20T15:01:31;2.63;;;1.53;;
1020;SDS011;499;42.648;23.270;2022-11-20T15:03:59;2.00;;;1.50;;
1020;SDS011;499;42.648;23.270;2022-11-20T15:06:27;1.33;;;1.03;;
1020;SDS011;499;42.648;23.270;2022-11-20T15:08:56;1.43;;;1.17;;
1020;SDS011;499;42.648;23.270;2022-11-20T15:11:27;1.10;;;1.00;;
1020;SDS011;499;42.648;23.270;2022-11-20T15:13:56;1.50;;;0.93;;
1020;SDS011;499;42.648;23.270;2022-11-20T15:16:24;1.70;;;1.47;;
1020;SDS011;499;42.648;23.270;2022-11-20T15:18:54;1.13;;;0.90;;
1020;SDS011;499;42.648;23.270;2022-11-20T15:21:21;1.40;;;1.27;;
1020;SDS011;499;42.648;23.270;2022-11-20T15:23:48;1.20;;;0.93;;
1020;SDS011;499;42.648;23.270;2022-11-20T15:26:24;1.87;;;1.77;;
1020;SDS011;499;42.648;23.270;2022-11-20T15:28:53;1.67;;;1.27;;
1020;SDS011;499;42.648;23.270;2022-11-20T15:31:21;1.37;;;1.10;;
1020;SDS011;499;42.648;23.270;2022-11-20T15:33:49;1.70;;;1.53;;
1020;SDS011;499;42.648;23.270;2022-11-20T15:36:18;2.20;;;1.60;;
1020;SDS011;499;42.648;23.270;2022-11-20T15:38:45;1.30;;;1.20;;
1020;SDS011;499;42.648;23.270;2022-11-20T15:41:12;1.63;;;1.20;;
1020;SDS011;499;42.648;23.270;2022-11-20T15:43:39;1.10;;;1.00;;
1020;SDS011;499;42.648;23.270;2022-11-20T15:46:08;1.10;;;0.97;;
1020;SDS011;499;42.648;23.270;2022-11-20T15:48:38;1.73;;;1.27;;
1020;SDS011;499;42.648;23.270;2022-11-20T15:51:07;1.80;;;1.30;;
1020;SDS011;499;42.648;23.270;2022-11-20T15:53:45;1.00;;;0.90;;